Results: 2022 Asuncion South American Games | Elite Women
Asuncion, Paraguay • 02 Oct, 2022
Pos First Name Last Name YOB Country Start
Num
Time Swim T1 Bike T2 Run
1 Luisa Baptista 1994 BRA 2 00:59:47 00:10:57 00:00:45 00:30:37 00:00:22 00:17:07
2 Vittoria Lopes 1996 BRA 5 01:00:01 00:10:14 00:00:47 00:30:43 00:00:25 00:17:52
3 Djenyfer Arnold 1993 BRA 1 01:00:37 00:10:33 00:00:53 00:30:53 00:00:23 00:17:55
4 Diana Castillo 1993 COL 6 01:01:02 00:10:50 00:00:51 00:30:39 00:00:26 00:18:15
5 Elizabeth Bravo 1987 ECU 3 01:01:18 00:11:08 00:00:46 00:31:56 00:00:27 00:17:01
6 Moira Miranda 1998 ARG 11 01:01:28 00:10:51 00:00:48 00:30:41 00:00:24 00:18:44
7 Maria Carolina Velasquez Soto 1997 COL 9 01:01:40 00:11:25 00:00:45 00:31:39 00:00:23 00:17:27
8 Paula Jara 1997 ECU 7 01:02:00 00:11:28 00:00:54 00:31:28 00:00:24 00:17:45
9 Romina Biagioli 1989 ARG 8 01:02:36 00:11:09 00:00:49 00:31:52 00:00:12 00:18:33
10 Daniela Moya Chamorro 2002 CHI 10 01:02:41 00:11:16 00:00:50 00:31:44 00:00:28 00:18:23
11 Dominga Elena Jacome Espinoza 2005 CHI 21 01:03:05 00:11:11 00:00:39 00:30:30 00:00:23 00:20:22
12 Rosa Elena Martinez Melchor 1995 VEN 15 01:03:57 00:11:25 00:00:47 00:31:38 00:00:12 00:19:54
13 Gianella Debra Coaguila Pita 2003 PER 23 01:04:25 00:11:14 00:00:48 00:31:50 00:00:32 00:20:01
14 Macarena Salazar 1995 CHI 4 01:04:39 00:11:10 00:00:49 00:31:50 00:00:23 00:20:27
15 Marianny Giuseppina Antonelli Urriola 1993 VEN 12 01:05:19 00:11:17 00:00:49 00:31:48 00:00:26 00:20:59
16 Karina Del Valle Clemant Materano 2001 VEN 26 01:05:19 00:11:18 00:00:51 00:31:42 00:00:26 00:21:02
17 Lina Maria Raga 1988 COL 14 01:06:11 00:11:22 00:00:51 00:31:40 00:00:33 00:21:46
18 Ada Sofia Bravo Mejia 1996 PER 18 01:07:23 00:11:55 00:00:57 00:34:46 00:00:23 00:19:23
19 Estefania Diaz 2001 ARG 16 01:08:11 00:12:08 00:00:47 00:34:42 00:00:23 00:20:11
LAP Liz Gabriela Vargas Diez Perez 1986 PAR 17 LAP 00:14:28 00:00:50 00:00:00 00:00:00 00:00:00
LAP Tamara Correa Casartelli 1996 PAR 19 LAP 00:14:35 00:01:01 00:00:00 00:00:00 00:00:00
LAP Montserrat Moscoso Pierola 2005 BOL 20 LAP 00:14:02 00:01:01 00:00:00 00:00:00 00:00:00
LAP Maygonagal Sharom Limachi Palacios BOL 22 LAP 00:14:23 00:00:57 00:00:00 00:00:00 00:00:00
LAP Maria Mercedes Salinas Ruiz 1988 PAR 24 LAP 00:16:57 00:01:15 00:00:00 00:00:00 00:00:00
LAP Marjim Gabriela Soto Ramos 1997 BOL 25 LAP 00:12:14 00:00:51 00:00:00 00:00:00 00:00:00
Program notes:

Technical Delegate: Ricardo Neves/BRA, Manuela Calcavanti/BRA. Competition Jury: Ricardo Neves/BRA, Orlando Arauz/ARG, Jaime Torres/PAR.
Distances: swim 750 m (1 lap), bike 20 km (4 laps), run 5 km (2 laps).
Water temperature: 20.3ºC, air temperature 23ºC. Wetsuits not allowed.